Time;durP1;ratioP1;P1;durP2;ratioP2;P2;SDS_P1;SDS_P2;PMS_P1;PMS_P2;Temp;Humidity;BMP_temperature;BMP_pressure;BME280_temperature;BME280_humidity;BME280_pressure;Samples;Min_cycle;Max_cycle;Signal;HPM_P1;HPM_P2
2023/02/23 00:00:46;;;;;;;13.6;7.3;;;;;;;0.1;87.1;98910;;;;
2023/02/23 00:10:46;;;;;;;13.6;7.3;;;;;;;0;87;98910;;;;
2023/02/23 00:20:47;;;;;;;14.7;6.8;;;;;;;-0.1;87.1;98900;;;;
2023/02/23 00:30:47;;;;;;;14.7;6.8;;;;;;;-0.1;87.2;98900;;;;
2023/02/23 00:41:46;;;;;;;14.7;6.8;;;;;;;-0.2;87.2;98910;;;;
2023/02/23 00:52:46;;;;;;;9.6;5.4;;;;;;;-0.3;87;98900;;;;
2023/02/23 01:02:46;;;;;;;9.6;5.4;;;;;;;-0.4;87.1;98900;;;;
2023/02/23 01:12:47;;;;;;;9.6;5.4;;;;;;;-0.4;87.3;98900;;;;
2023/02/23 01:22:46;;;;;;;12.4;5.8;;;;;;;-0.5;87.5;98890;;;;
2023/02/23 01:33:46;;;;;;;12.4;5.8;;;;;;;-0.6;87.6;98880;;;;
2023/02/23 01:43:46;;;;;;;12.4;5.8;;;;;;;-0.7;87.9;98870;;;;
2023/02/23 01:53:46;;;;;;;12.2;6;;;;;;;-0.8;88.1;98870;;;;
2023/02/23 02:03:46;;;;;;;12.2;6;;;;;;;-0.9;88.1;98860;;;;
2023/02/23 02:14:47;;;;;;;12.2;6;;;;;;;-1;88.4;98860;;;;
2023/02/23 02:25:46;;;;;;;10.2;6.5;;;;;;;-1;88.3;98860;;;;
2023/02/23 02:35:46;;;;;;;10.2;6.5;;;;;;;-1.1;88.4;98850;;;;
2023/02/23 02:46:46;;;;;;;10.2;6.5;;;;;;;-1.2;88.7;98840;;;;
2023/02/23 02:56:46;;;;;;;11.2;6.3;;;;;;;-1.2;88.8;98830;;;;
2023/02/23 04:19:47;;;;;;;13.5;7.6;;;;;;;-1.5;88.4;98830;;;;
2023/02/23 04:29:47;;;;;;;13.5;7.6;;;;;;;-1.6;88.4;98830;;;;
2023/02/23 04:40:47;;;;;;;13.5;7.6;;;;;;;-1.7;88.7;98820;;;;
2023/02/23 04:51:46;;;;;;;12.7;7.8;;;;;;;-1.7;89.1;98820;;;;
2023/02/23 05:01:46;;;;;;;12.7;7.8;;;;;;;-1.7;89;98810;;;;
2023/02/23 05:11:47;;;;;;;12.7;7.8;;;;;;;-1.7;89.1;98810;;;;
2023/02/23 05:22:47;;;;;;;17.1;7.7;;;;;;;-1.7;88.9;98810;;;;
2023/02/23 05:32:46;;;;;;;17.1;7.7;;;;;;;-1.7;88.8;98820;;;;
2023/02/23 05:42:47;;;;;;;17.1;7.7;;;;;;;-1.7;88.6;98820;;;;
2023/02/23 05:52:47;;;;;;;12.4;7.2;;;;;;;-1.7;88.7;98820;;;;
2023/02/23 06:03:47;;;;;;;12.4;7.2;;;;;;;-1.7;89.1;98830;;;;
2023/02/23 06:13:47;;;;;;;12.4;7.2;;;;;;;-1.5;89.1;98830;;;;
2023/02/23 06:24:48;;;;;;;15.1;7.3;;;;;;;-1.3;88.9;98840;;;;
2023/02/23 06:34:47;;;;;;;15.1;7.3;;;;;;;-1.2;88.8;98840;;;;
2023/02/23 06:45:47;;;;;;;15.1;7.3;;;;;;;-1;88.4;98840;;;;
2023/02/23 06:56:47;;;;;;;16.5;8;;;;;;;-0.7;88.1;98840;;;;
2023/02/23 07:06:47;;;;;;;16.5;8;;;;;;;-0.6;87.8;98850;;;;
2023/02/23 07:17:48;;;;;;;16.5;8;;;;;;;-0.2;87.1;98850;;;;
2023/02/23 07:28:47;;;;;;;16;9.8;;;;;;;0;86.4;98850;;;;
2023/02/23 07:38:47;;;;;;;16;9.8;;;;;;;0.3;85.7;98850;;;;
2023/02/23 07:48:47;;;;;;;14.3;8.3;;;;;;;0.8;85.4;98840;;;;
2023/02/23 07:59:47;;;;;;;14.3;8.3;;;;;;;1.1;84.1;98840;;;;
2023/02/23 08:09:47;;;;;;;14.3;8.3;;;;;;;1.4;83.7;98840;;;;
2023/02/23 08:19:48;;;;;;;19;10.6;;;;;;;1.8;82.7;98840;;;;
2023/02/23 08:29:47;;;;;;;19;10.6;;;;;;;2;81.3;98840;;;;
2023/02/23 08:40:47;;;;;;;19;10.6;;;;;;;2.5;80.7;98840;;;;
2023/02/23 08:51:47;;;;;;;20.6;11.2;;;;;;;2.7;79.2;98830;;;;
2023/02/23 09:02:47;;;;;;;20.6;11.2;;;;;;;3.2;79.2;98830;;;;
2023/02/23 09:13:47;;;;;;;20.6;11.2;;;;;;;3.7;78.3;98830;;;;
2023/02/23 09:23:48;;;;;;;22.4;14.2;;;;;;;4;76.9;98820;;;;
2023/02/23 09:33:47;;;;;;;22.4;14.2;;;;;;;4.3;75.5;98820;;;;
2023/02/23 09:43:47;;;;;;;22.4;14.2;;;;;;;4.4;75.5;98820;;;;
2023/02/23 09:53:47;;;;;;;22.1;16.9;;;;;;;4.7;74.8;98810;;;;
2023/02/23 10:03:47;;;;;;;22.1;16.9;;;;;;;5.2;74;98810;;;;
2023/02/23 10:14:47;;;;;;;22.1;16.9;;;;;;;5.6;73.6;98800;;;;
2023/02/23 10:24:47;;;;;;;24.8;18.5;;;;;;;5.7;72.9;98790;;;;
2023/02/23 10:34:47;;;;;;;24.8;18.5;;;;;;;6.2;72.6;98790;;;;
2023/02/23 10:44:48;;;;;;;24.8;18.5;;;;;;;6.7;71.2;98780;;;;
2023/02/23 10:55:47;;;;;;;26;19.4;;;;;;;7;70.4;98760;;;;
2023/02/23 11:05:49;;;;;;;26;19.4;;;;;;;7.4;69.8;98750;;;;
2023/02/23 11:16:47;;;;;;;26;19.4;;;;;;;7.9;69.3;98740;;;;
2023/02/23 11:26:47;;;;;;;26.1;20;;;;;;;8;68.2;98720;;;;
2023/02/23 11:36:48;;;;;;;26.1;20;;;;;;;8.3;67.6;98710;;;;
2023/02/23 11:46:47;;;;;;;26.1;20;;;;;;;8.4;67.5;98700;;;;
2023/02/23 11:56:47;;;;;;;25.2;19.8;;;;;;;8.8;66.9;98700;;;;
2023/02/23 12:07:47;;;;;;;25.2;19.8;;;;;;;9.1;66.6;98680;;;;
2023/02/23 12:17:47;;;;;;;25.2;19.8;;;;;;;9.2;66.6;98680;;;;
2023/02/23 12:27:49;;;;;;;28.6;20.2;;;;;;;9.4;66;98670;;;;
2023/02/23 12:38:47;;;;;;;28.6;20.2;;;;;;;9.5;66.1;98660;;;;
2023/02/23 12:48:47;;;;;;;27.8;19;;;;;;;9.9;65.5;98650;;;;
2023/02/23 12:58:47;;;;;;;27.8;19;;;;;;;10.1;64.3;98630;;;;
2023/02/23 13:09:47;;;;;;;27.8;19;;;;;;;10.3;64.6;98610;;;;
2023/02/23 13:19:47;;;;;;;23;18.6;;;;;;;10.4;64.2;98600;;;;
2023/02/23 13:30:47;;;;;;;23;18.6;;;;;;;10.4;64;98600;;;;
2023/02/23 13:40:47;;;;;;;23;18.6;;;;;;;10.6;64.5;98590;;;;
2023/02/23 13:51:47;;;;;;;20.9;17.5;;;;;;;10.3;64.2;98570;;;;
2023/02/23 14:01:47;;;;;;;20.9;17.5;;;;;;;10.4;64.3;98560;;;;
2023/02/23 14:11:47;;;;;;;20.9;17.5;;;;;;;10.3;65;98560;;;;
2023/02/23 14:21:48;;;;;;;24.7;18.9;;;;;;;10.1;65.4;98550;;;;
2023/02/23 14:32:47;;;;;;;24.7;18.9;;;;;;;10.2;65.5;98540;;;;
2023/02/23 14:42:47;;;;;;;24.7;18.9;;;;;;;10.2;66.1;98530;;;;
2023/02/23 14:52:47;;;;;;;30.1;22.2;;;;;;;9.9;67.5;98520;;;;
2023/02/23 15:02:47;;;;;;;30.1;22.2;;;;;;;9.9;67.4;98510;;;;
2023/02/23 15:12:47;;;;;;;30.1;22.2;;;;;;;9.8;68.1;98500;;;;
2023/02/23 15:22:47;;;;;;;30.8;22.1;;;;;;;9.7;68.5;98490;;;;
2023/02/23 15:32:47;;;;;;;30.8;22.1;;;;;;;9.5;68.8;98480;;;;
2023/02/23 15:43:47;;;;;;;30.8;22.1;;;;;;;9.3;69.4;98470;;;;
2023/02/23 15:53:47;;;;;;;53.6;37.5;;;;;;;9;70;98470;;;;
2023/02/23 16:04:48;;;;;;;53.6;37.5;;;;;;;8.7;70.6;98470;;;;
2023/02/23 16:14:47;;;;;;;53.6;37.5;;;;;;;8.4;70.9;98460;;;;
2023/02/23 16:24:47;;;;;;;30.5;20.7;;;;;;;8.1;71.3;98460;;;;
2023/02/23 16:35:47;;;;;;;30.5;20.7;;;;;;;7.8;71.6;98460;;;;
2023/02/23 16:45:47;;;;;;;30.5;20.7;;;;;;;7.6;72.7;98460;;;;
2023/02/23 16:56:47;;;;;;;38.3;26;;;;;;;7.3;73.9;98460;;;;
2023/02/23 17:06:51;;;;;;;38.3;26;;;;;;;7.1;73.9;98450;;;;
2023/02/23 17:16:47;;;;;;;38.3;26;;;;;;;7;74.3;98460;;;;
2023/02/23 17:27:47;;;;;;;37.7;27.4;;;;;;;6.9;74.9;98460;;;;
2023/02/23 17:37:47;;;;;;;37.7;27.4;;;;;;;6.8;75.6;98440;;;;
2023/02/23 17:48:47;;;;;;;34.2;25.6;;;;;;;6.6;76.1;98440;;;;
2023/02/23 17:59:47;;;;;;;34.2;25.6;;;;;;;6.4;76.8;98430;;;;
2023/02/23 18:09:48;;;;;;;34.2;25.6;;;;;;;6.3;76.4;98430;;;;
2023/02/23 18:19:47;;;;;;;27.7;20.4;;;;;;;6.2;76.3;98430;;;;
2023/02/23 18:30:47;;;;;;;27.7;20.4;;;;;;;5.9;76.6;98420;;;;
2023/02/23 18:41:47;;;;;;;27.7;20.4;;;;;;;5.8;77.1;98420;;;;
2023/02/23 18:51:47;;;;;;;44.4;28.4;;;;;;;5.7;77.8;98410;;;;
2023/02/23 19:01:47;;;;;;;44.4;28.4;;;;;;;5.7;78.1;98410;;;;
2023/02/23 19:11:47;;;;;;;44.4;28.4;;;;;;;5.6;78.4;98400;;;;
2023/02/23 19:21:47;;;;;;;36.2;25.2;;;;;;;5.6;78.7;98390;;;;
2023/02/23 19:32:47;;;;;;;36.2;25.2;;;;;;;5.6;79.2;98390;;;;
2023/02/23 19:43:47;;;;;;;36.2;25.2;;;;;;;5.6;80.2;98380;;;;
2023/02/23 19:54:47;;;;;;;53.3;30.5;;;;;;;5.5;80;98380;;;;
2023/02/23 20:04:47;;;;;;;53.3;30.5;;;;;;;5.5;80;98380;;;;
2023/02/23 20:15:47;;;;;;;53.3;30.5;;;;;;;5.4;80.3;98380;;;;
2023/02/23 20:26:47;;;;;;;55.2;36.9;;;;;;;5.4;80.3;98370;;;;
2023/02/23 20:36:49;;;;;;;55.2;36.9;;;;;;;5.3;80.4;98370;;;;
2023/02/23 20:47:51;;;;;;;65.6;39.2;;;;;;;5.2;80.6;98360;;;;
2023/02/23 20:57:47;;;;;;;65.6;39.2;;;;;;;5.2;81.4;98340;;;;
2023/02/23 21:07:48;;;;;;;65.6;39.2;;;;;;;5.2;81.5;98340;;;;
2023/02/23 21:17:49;;;;;;;53.7;34.5;;;;;;;5.2;81.8;98330;;;;
2023/02/23 21:28:48;;;;;;;53.7;34.5;;;;;;;5.4;82.8;98330;;;;
2023/02/23 21:39:47;;;;;;;53.7;34.5;;;;;;;5.5;82.8;98320;;;;
2023/02/23 21:50:47;;;;;;;35;21.9;;;;;;;5.9;84;98310;;;;
2023/02/23 22:00:47;;;;;;;35;21.9;;;;;;;6.1;83.7;98290;;;;
2023/02/23 22:10:47;;;;;;;35;21.9;;;;;;;6.5;83.1;98280;;;;
2023/02/23 22:20:54;;;;;;;29.2;20.7;;;;;;;6.7;82.2;98270;;;;
2023/02/23 22:31:47;;;;;;;29.2;20.7;;;;;;;7;81.3;98260;;;;
2023/02/23 22:42:47;;;;;;;29.2;20.7;;;;;;;7.2;80.2;98250;;;;
2023/02/23 22:52:47;;;;;;;26.2;18.4;;;;;;;7.6;79.2;98230;;;;
2023/02/23 23:02:47;;;;;;;26.2;18.4;;;;;;;7.7;78.7;98220;;;;
2023/02/23 23:13:47;;;;;;;26.2;18.4;;;;;;;7.9;78.3;98200;;;;
2023/02/23 23:23:47;;;;;;;23;18.1;;;;;;;8.1;77.7;98190;;;;
2023/02/23 23:34:47;;;;;;;23;18.1;;;;;;;8.2;77.2;98180;;;;
2023/02/23 23:45:50;;;;;;;23;18.1;;;;;;;8.2;77.1;98170;;;;
2023/02/23 23:55:47;;;;;;;26.1;19.2;;;;;;;8.3;76.7;98170;;;;
